createdAt,value
2019-01-13T00:00:45.075Z,46.97
2019-01-13T00:03:13.674Z,47.00
2019-01-13T00:05:42.245Z,55.43
2019-01-13T00:08:10.750Z,49.10
2019-01-13T00:10:39.495Z,45.47
2019-01-13T00:13:08.054Z,48.97
2019-01-13T00:15:36.701Z,43.07
2019-01-13T00:18:05.243Z,50.10
2019-01-13T00:20:33.743Z,45.93
2019-01-13T00:23:02.223Z,53.23
2019-01-13T00:25:30.856Z,55.47
2019-01-13T00:27:59.421Z,49.93
2019-01-13T00:30:27.983Z,51.93
2019-01-13T00:32:56.569Z,46.53
2019-01-13T00:35:25.003Z,49.87
2019-01-13T00:37:53.483Z,49.60
2019-01-13T00:40:40.163Z,46.77
2019-01-13T00:43:08.756Z,47.83
2019-01-13T00:45:37.536Z,46.33
2019-01-13T00:48:06.236Z,53.03
2019-01-13T00:50:34.759Z,43.93
2019-01-13T00:53:03.361Z,49.00
2019-01-13T00:55:32.060Z,48.37
2019-01-13T00:58:00.801Z,49.90
2019-01-13T01:00:29.275Z,46.30
2019-01-13T01:02:57.812Z,47.57
2019-01-13T01:05:26.383Z,44.60
2019-01-13T01:07:55.130Z,41.07
2019-01-13T01:10:23.678Z,44.90
2019-01-13T01:12:52.153Z,42.27
2019-01-13T01:15:20.790Z,44.10
2019-01-13T01:17:49.356Z,37.53
2019-01-13T01:20:18.273Z,39.80
2019-01-13T01:22:46.787Z,39.20
2019-01-13T01:25:17.569Z,35.93
2019-01-13T01:27:46.071Z,37.37
2019-01-13T01:30:19.665Z,38.63
2019-01-13T01:32:48.240Z,34.77
2019-01-13T01:35:17.304Z,31.40
2019-01-13T01:37:46.201Z,36.20
2019-01-13T01:40:19.591Z,33.10
2019-01-13T01:42:48.217Z,33.23
2019-01-13T01:45:19.149Z,37.30
2019-01-13T01:47:47.782Z,36.63
2019-01-13T01:50:16.466Z,34.20
2019-01-13T01:52:45.147Z,30.77
2019-01-13T01:55:18.460Z,31.20
2019-01-13T01:57:47.037Z,35.00
2019-01-13T02:00:20.378Z,35.37
2019-01-13T02:02:48.908Z,34.60
2019-01-13T02:05:17.650Z,31.00
2019-01-13T02:07:46.265Z,30.03
2019-01-13T02:10:17.053Z,32.03
2019-01-13T02:12:47.072Z,37.97
2019-01-13T02:15:18.600Z,33.57
2019-01-13T02:17:47.102Z,35.30
2019-01-13T02:20:17.637Z,30.57
2019-01-13T02:22:46.523Z,35.57
2019-01-13T02:25:20.754Z,28.63
2019-01-13T02:27:49.342Z,30.77
2019-01-13T02:30:21.100Z,33.60
2019-01-13T02:32:49.744Z,28.57
2019-01-13T02:35:18.373Z,28.77
2019-01-13T02:37:47.094Z,26.93
2019-01-13T02:40:18.407Z,26.40
2019-01-13T02:42:47.201Z,28.67
2019-01-13T02:45:18.574Z,27.27
2019-01-13T02:47:47.055Z,29.03
2019-01-13T02:50:15.594Z,26.93
2019-01-13T02:52:44.011Z,25.67
2019-01-13T02:55:12.388Z,25.43
2019-01-13T02:57:41.193Z,28.73
2019-01-13T03:00:15.784Z,30.90
2019-01-13T03:02:44.425Z,28.63
2019-01-13T03:05:13.929Z,25.77
2019-01-13T03:07:42.501Z,26.57
2019-01-13T03:10:16.496Z,25.20
2019-01-13T03:12:45.015Z,25.60
2019-01-13T03:15:19.663Z,21.87
2019-01-13T03:17:47.438Z,25.93
2019-01-13T03:20:16.072Z,24.57
2019-01-13T03:22:44.746Z,24.20
2019-01-13T03:25:15.471Z,26.33
2019-01-13T03:27:43.997Z,23.40
2019-01-13T03:30:18.168Z,29.50
2019-01-13T03:32:46.945Z,30.37
2019-01-13T03:35:15.490Z,29.83
2019-01-13T03:37:44.112Z,31.27
2019-01-13T03:40:15.517Z,33.17
2019-01-13T03:42:44.213Z,32.63
2019-01-13T03:45:13.015Z,31.93
2019-01-13T03:47:41.501Z,31.00
2019-01-13T03:50:12.878Z,29.40
2019-01-13T03:52:41.510Z,28.80
2019-01-13T03:55:10.503Z,27.37
2019-01-13T03:57:39.185Z,25.87
2019-01-13T04:00:16.455Z,26.03
2019-01-13T04:02:45.136Z,25.97
2019-01-13T04:05:13.826Z,29.80
2019-01-13T04:07:42.485Z,25.70
2019-01-13T04:10:13.574Z,30.40
2019-01-13T04:12:42.139Z,29.70
2019-01-13T04:15:32.350Z,31.03
2019-01-13T04:18:01.520Z,26.87
2019-01-13T04:20:30.254Z,28.23
2019-01-13T04:22:58.828Z,26.80
2019-01-13T04:25:27.492Z,29.67
2019-01-13T04:27:56.113Z,30.53
2019-01-13T04:30:24.720Z,30.97
2019-01-13T04:32:53.345Z,37.00
2019-01-13T04:35:21.944Z,33.50
2019-01-13T04:37:50.436Z,33.07
2019-01-13T04:40:18.948Z,29.60
2019-01-13T04:42:50.244Z,33.87
2019-01-13T04:45:18.758Z,31.30
2019-01-13T04:47:47.236Z,31.73
2019-01-13T04:50:15.942Z,32.33
2019-01-13T04:52:44.461Z,35.37
2019-01-13T04:55:13.278Z,33.27
2019-01-13T04:57:41.953Z,33.83
2019-01-13T05:00:13.598Z,35.77
2019-01-13T05:02:42.279Z,33.40
2019-01-13T05:05:10.999Z,34.20
2019-01-13T05:07:39.616Z,36.97
2019-01-13T05:10:14.020Z,34.17
2019-01-13T05:12:42.544Z,31.20
2019-01-13T05:15:11.124Z,30.97
2019-01-13T05:17:39.828Z,33.50
2019-01-13T05:20:11.890Z,37.50
2019-01-13T05:22:41.389Z,36.50
2019-01-13T05:25:09.970Z,37.27
2019-01-13T05:27:38.583Z,37.70
2019-01-13T05:30:21.194Z,40.73
2019-01-13T05:32:49.944Z,35.63
2019-01-13T05:35:18.628Z,34.30
2019-01-13T05:37:47.168Z,32.93
2019-01-13T05:40:17.466Z,30.43
2019-01-13T05:42:46.011Z,33.17
2019-01-13T05:45:16.403Z,32.13
2019-01-13T05:47:44.945Z,31.73
2019-01-13T05:50:15.088Z,33.77
2019-01-13T05:52:44.703Z,29.70
2019-01-13T05:55:13.523Z,35.17
2019-01-13T05:57:42.122Z,35.20
2019-01-13T06:00:16.459Z,31.13
2019-01-13T06:02:45.104Z,33.43
2019-01-13T06:05:13.634Z,35.33
2019-01-13T06:07:42.178Z,37.97
2019-01-13T06:10:13.858Z,34.70
2019-01-13T06:12:42.329Z,32.17
2019-01-13T06:15:13.686Z,31.77
2019-01-13T06:17:42.207Z,32.40
2019-01-13T06:20:13.801Z,35.40
2019-01-13T06:22:42.237Z,30.47
2019-01-13T06:25:10.915Z,36.50
2019-01-13T06:27:39.414Z,31.90
2019-01-13T06:30:11.231Z,34.13
2019-01-13T06:32:39.813Z,27.10
2019-01-13T06:35:08.321Z,31.30
2019-01-13T06:37:36.918Z,32.37
2019-01-13T06:40:08.774Z,34.07
2019-01-13T06:42:37.342Z,33.47
2019-01-13T06:45:12.647Z,37.03
2019-01-13T06:47:41.199Z,31.27
2019-01-13T06:50:12.427Z,30.57
2019-01-13T06:52:41.003Z,31.63
2019-01-13T06:55:10.316Z,37.17
2019-01-13T06:57:39.314Z,31.70
2019-01-13T07:00:14.380Z,31.50
2019-01-13T07:02:42.951Z,32.03
2019-01-13T07:05:11.497Z,30.67
2019-01-13T07:07:40.260Z,32.80
2019-01-13T07:10:10.825Z,33.33
2019-01-13T07:12:41.441Z,33.20
2019-01-13T07:15:13.596Z,36.20
2019-01-13T07:17:43.780Z,31.63
2019-01-13T07:20:14.949Z,34.03
2019-01-13T07:22:45.212Z,35.00
2019-01-13T07:25:13.859Z,33.00
2019-01-13T07:27:42.394Z,33.57
2019-01-13T07:30:19.965Z,32.07
2019-01-13T07:32:48.994Z,33.70
2019-01-13T07:35:18.274Z,33.80
2019-01-13T07:37:46.810Z,34.17
2019-01-13T07:40:17.400Z,34.33
2019-01-13T07:42:48.928Z,38.07
2019-01-13T07:45:19.885Z,34.90
2019-01-13T07:47:48.887Z,33.23
2019-01-13T07:50:19.260Z,33.23
2019-01-13T07:52:50.340Z,31.87
2019-01-13T07:55:22.205Z,33.37
2019-01-13T07:57:53.003Z,34.13
2019-01-13T08:00:28.177Z,32.63
2019-01-13T08:02:59.291Z,35.47
2019-01-13T08:05:28.917Z,32.10
2019-01-13T08:07:57.606Z,34.00
2019-01-13T08:10:26.382Z,33.10
2019-01-13T08:13:05.002Z,32.97
2019-01-13T08:15:36.646Z,32.83
2019-01-13T08:18:07.702Z,29.33
2019-01-13T08:20:36.265Z,29.40
2019-01-13T08:23:06.055Z,30.50
2019-01-13T08:25:34.671Z,28.13
2019-01-13T08:28:03.362Z,28.37
2019-01-13T08:30:32.102Z,30.00
2019-01-13T08:33:03.654Z,28.00
2019-01-13T08:35:35.332Z,25.70
2019-01-13T08:38:07.732Z,32.00
2019-01-13T08:40:39.997Z,29.70
2019-01-13T08:43:08.811Z,30.30
2019-01-13T08:45:37.477Z,29.17
2019-01-13T08:48:08.914Z,34.13
2019-01-13T08:50:40.951Z,29.93
2019-01-13T08:53:10.793Z,28.97
2019-01-13T08:55:42.627Z,25.97
2019-01-13T08:58:13.609Z,28.87
2019-01-13T09:00:42.355Z,26.63
2019-01-13T09:03:10.908Z,27.97
2019-01-13T09:05:39.573Z,24.67
2019-01-13T09:08:08.205Z,25.80
2019-01-13T09:10:36.994Z,24.87
2019-01-13T09:13:10.328Z,25.43
2019-01-13T09:15:38.942Z,22.80
2019-01-13T09:18:07.505Z,26.30
2019-01-13T09:20:39.519Z,24.03
2019-01-13T09:23:08.251Z,28.10
2019-01-13T09:25:39.131Z,26.17
2019-01-13T09:28:07.839Z,25.07
2019-01-13T09:30:36.594Z,27.80
2019-01-13T09:33:06.476Z,25.80
2019-01-13T09:35:35.497Z,29.00
2019-01-13T09:38:04.321Z,24.30
2019-01-13T09:40:33.009Z,24.80
2019-01-13T09:43:04.494Z,22.97
2019-01-13T09:45:34.351Z,24.50
2019-01-13T09:48:07.057Z,23.70
2019-01-13T09:50:35.681Z,23.40
2019-01-13T09:53:08.099Z,23.23
2019-01-13T09:55:36.584Z,20.73
2019-01-13T09:58:05.455Z,23.80
2019-01-13T10:00:36.198Z,20.60
2019-01-13T10:03:06.924Z,24.47
2019-01-13T10:05:35.572Z,23.10
2019-01-13T10:08:07.444Z,19.83
2019-01-13T10:10:37.723Z,22.97
2019-01-13T10:13:06.241Z,26.10
2019-01-13T10:15:36.120Z,24.27
2019-01-13T10:18:04.814Z,24.23
2019-01-13T10:20:33.517Z,24.07
2019-01-13T10:23:02.297Z,23.53
2019-01-13T10:25:32.233Z,23.53
2019-01-13T10:28:00.838Z,24.40
2019-01-13T10:30:30.262Z,24.47
2019-01-13T10:33:03.174Z,26.30
2019-01-13T10:35:31.792Z,25.43
2019-01-13T10:38:02.937Z,21.63
2019-01-13T10:40:31.480Z,23.27
2019-01-13T10:43:00.149Z,22.07
2019-01-13T10:45:28.710Z,23.47
2019-01-13T10:48:00.170Z,20.47
2019-01-13T10:50:29.176Z,19.37
2019-01-13T10:52:59.582Z,21.80
2019-01-13T10:55:28.130Z,19.37
2019-01-13T10:58:00.016Z,18.90
2019-01-13T11:00:33.238Z,19.13
2019-01-13T11:03:04.570Z,18.00
2019-01-13T11:05:34.713Z,23.10
2019-01-13T11:08:11.456Z,21.83
2019-01-13T11:10:41.069Z,24.53
2019-01-13T11:13:09.668Z,23.63
2019-01-13T11:15:40.241Z,21.33
2019-01-13T11:18:10.583Z,23.23
2019-01-13T11:20:43.335Z,22.57
2019-01-13T11:23:14.621Z,22.63
2019-01-13T11:25:49.363Z,22.40
2019-01-13T11:28:18.047Z,22.30
2019-01-13T11:30:46.726Z,20.07
2019-01-13T11:33:15.212Z,23.40
2019-01-13T11:35:45.427Z,23.33
2019-01-13T11:38:21.925Z,16.60
2019-01-13T11:41:31.404Z,21.50
2019-01-13T11:46:49.543Z,23.07
2019-01-13T11:49:29.925Z,22.00
2019-01-13T11:53:30.639Z,20.83
2019-01-13T11:55:53.552Z,21.80
2019-01-13T11:58:44.929Z,20.97
2019-01-13T12:07:41.482Z,19.63
2019-01-13T12:10:28.486Z,20.33
2019-01-13T12:14:12.279Z,21.50
2019-01-13T12:16:37.706Z,19.93
2019-01-13T12:19:25.446Z,25.20
2019-01-13T12:22:37.164Z,25.57
2019-01-13T12:24:56.072Z,24.13
2019-01-13T12:31:33.511Z,26.27
2019-01-13T12:34:14.481Z,25.10
2019-01-13T12:36:58.404Z,23.87
2019-01-13T12:39:30.401Z,23.93
2019-01-13T12:44:39.334Z,25.17
2019-01-13T12:47:10.796Z,22.03
2019-01-13T12:49:45.113Z,22.23
2019-01-13T12:52:18.431Z,24.50
2019-01-13T12:54:44.152Z,19.60
2019-01-13T12:57:12.754Z,19.00
2019-01-13T12:59:41.579Z,22.07
2019-01-13T13:02:10.113Z,19.67
2019-01-13T13:04:45.959Z,23.33
2019-01-13T13:11:09.501Z,19.90
2019-01-13T13:13:59.397Z,24.03
2019-01-13T13:16:38.634Z,23.13
2019-01-13T13:19:22.868Z,23.67
2019-01-13T13:22:22.010Z,23.57
2019-01-13T13:24:58.034Z,20.77
2019-01-13T13:27:37.846Z,21.73
2019-01-13T13:30:17.436Z,25.10
2019-01-13T13:32:53.966Z,23.83
2019-01-13T13:35:28.444Z,24.00
2019-01-13T13:38:00.238Z,27.63
2019-01-13T13:40:52.926Z,22.80
2019-01-13T13:43:38.890Z,26.33
2019-01-13T13:46:11.254Z,24.53
2019-01-13T13:48:54.578Z,25.80
2019-01-13T13:51:43.970Z,25.47
2019-01-13T13:56:58.759Z,26.83
2019-01-13T13:59:38.062Z,29.57
2019-01-13T14:02:12.789Z,31.40
2019-01-13T14:04:50.192Z,28.70
2019-01-13T14:07:27.380Z,28.10
2019-01-13T14:10:31.184Z,30.50
2019-01-13T14:13:15.510Z,30.00
2019-01-13T14:15:52.047Z,33.87
2019-01-13T14:18:31.232Z,28.50
2019-01-13T14:21:00.650Z,29.03
2019-01-13T14:23:33.504Z,33.33
2019-01-13T14:26:10.818Z,31.47
2019-01-13T14:28:41.144Z,38.67
2019-01-13T14:31:21.712Z,46.67
2019-01-13T14:33:52.986Z,42.40
2019-01-13T14:36:25.116Z,42.70
2019-01-13T14:38:53.598Z,43.23
2019-01-13T14:41:30.252Z,44.60
2019-01-13T14:43:59.930Z,42.40
2019-01-13T14:46:34.876Z,43.00
2019-01-13T14:49:17.105Z,44.47
2019-01-13T14:54:46.977Z,43.40
2019-01-13T14:57:17.982Z,43.90
2019-01-13T14:59:49.563Z,43.93
2019-01-13T15:02:28.564Z,34.10
2019-01-13T15:04:58.763Z,45.90
2019-01-13T15:07:30.772Z,46.33
2019-01-13T15:10:08.341Z,43.03
2019-01-13T15:15:19.207Z,39.73
2019-01-13T15:17:51.163Z,39.57
2019-01-13T15:20:43.746Z,37.73
2019-01-13T15:23:17.908Z,35.20
2019-01-13T15:25:58.033Z,42.23
2019-01-13T15:28:29.718Z,38.57
2019-01-13T15:31:14.237Z,39.13
2019-01-13T15:33:38.867Z,37.30
2019-01-13T15:36:13.682Z,32.13
2019-01-13T15:38:58.054Z,38.70
2019-01-13T15:41:18.844Z,30.27
2019-01-13T15:43:51.009Z,36.87
2019-01-13T15:46:24.158Z,39.43
2019-01-13T15:49:03.230Z,37.10
2019-01-13T15:51:33.154Z,36.23
2019-01-13T15:54:04.922Z,37.20
2019-01-13T15:56:33.712Z,35.70
2019-01-13T15:59:06.038Z,35.93
2019-01-13T16:01:36.794Z,37.80
2019-01-13T16:04:14.464Z,38.27
2019-01-13T16:07:10.544Z,37.20
2019-01-13T16:12:15.530Z,37.53
2019-01-13T16:17:44.896Z,39.87
2019-01-13T16:23:31.108Z,27.43
2019-01-13T16:25:59.961Z,36.63
2019-01-13T16:28:40.635Z,41.97
2019-01-13T16:31:24.023Z,37.80
2019-01-13T16:34:21.399Z,40.20
2019-01-13T16:37:02.943Z,38.00
2019-01-13T16:39:39.561Z,41.50
2019-01-13T16:42:16.199Z,40.70
2019-01-13T16:45:04.993Z,39.87
2019-01-13T16:47:37.167Z,43.20
2019-01-13T16:50:42.767Z,40.80
2019-01-13T16:53:24.753Z,39.87
2019-01-13T16:55:59.480Z,38.20
2019-01-13T16:58:55.859Z,39.23
2019-01-13T17:01:27.833Z,34.50
2019-01-13T17:04:20.135Z,35.70
2019-01-13T17:06:51.879Z,33.60
2019-01-13T17:09:29.033Z,33.37
2019-01-13T17:12:07.171Z,35.60
2019-01-13T17:14:50.396Z,31.67
2019-01-13T17:17:26.275Z,30.03
2019-01-13T17:20:25.789Z,33.47
2019-01-13T17:23:05.392Z,34.67
2019-01-13T17:25:38.379Z,34.60
2019-01-13T17:28:24.703Z,31.37
2019-01-13T17:31:08.221Z,30.87
2019-01-13T17:33:40.572Z,29.73
2019-01-13T17:36:15.273Z,28.47
2019-01-13T17:38:46.877Z,26.37
2019-01-13T17:41:25.629Z,30.77
2019-01-13T17:43:55.072Z,29.40
2019-01-13T17:46:52.403Z,25.33
2019-01-13T17:49:18.423Z,26.17
2019-01-13T17:52:20.464Z,23.53
2019-01-13T17:54:49.373Z,25.03
2019-01-13T17:57:18.409Z,27.03
2019-01-13T18:00:49.701Z,26.17
2019-01-13T18:06:28.754Z,22.87
2019-01-13T18:09:03.749Z,26.63
2019-01-13T18:11:39.388Z,23.53
2019-01-13T19:33:17.742Z,27.97
